Hlavní strana
METAR-TAF:

METAR-TAF

Letiště :

Dauphin, Manitoba, Kanada

zeměpisná šířka: 51-06N, zeměpisná délka: 100-03W, výška: 305 m

Aktuální stav počasí

Zpráva byla vytvořena před 39 minutami, v 18:00 UTC
Západoseverozápadní vítr 6 kt
Teplota -27°C
Vlhkost vzduchu 75%
Tlak 1033 hPa
Viditelnost: 14.5 km
Jasno

METAR: CYDN 181800Z AUTO 29006KT 9SM CLR M27/M30 A3049 RMK SLP372

Čas: 12:39 (18:39 UTC)

Předpověď počasí

Zpráva byla vytvořena před 1 hodinou a 1 minutami, v 17:38 UTC
Předpověď platná od 18 v 18 UTC do 19 v 06 UTC
Západní vítr 6 kt
Viditelnost: 10 km
Polojasno ve výšce 24000 ft
Změna
od 18 v 20 UTC do 18 v 22 UTC
Západní vítr 10 kt

TAF: CYDN 181738Z 1818/1906 28006KT P6SM SCT240 BECMG 1820/1822 26010KT RMK FCST BASED ON AUTO OBS. NXT FCST BY 190000Z

Stav a předpovědi počasí z více než 4 000 letišť (zprávy METAR a TAF).

Červené a žluté tečky na mapě představují dostupné meteorologické stanice.

Když kurzor umístíte na tečku, zobrazí se název stanice.

Pak kliknutím zobrazíte stav a předpověď počasí.

Chcete-li změnit mapu, kliknutím na zelené tlačítko se znaménkem +mapu přiblížíte, kliknutím na zelené tlačítko se znaménkem – mapu oddálíte a kliknutím na zelené šipky přejdete na sousední mapy.


METAR-TAF: